Hauptseite
METAR-TAF:

METAR-TAF

Flughäfen :

Flughafen Larnaka

Larnaka, Zypern

Breite: 34-53N, Länge: 033-38E, Höhe: 2 m

Beobachtung

Neuester Wetterbericht von vor 20 Minuten, um 08:30 UTC
Wind 7 kt aus Süd/Südost, variierte zwischen Ost/Südost und Süd
Temperatur 28°C
Luftfeuchtigkeit 48%
Luftdruck 1015 hPa
Sichtweite 10 km oder mehr
Leicht bewölkt in der Höhe von 3000 ft

METAR: LCLK 160830Z 15007KT 120V180 9999 FEW030 28/16 Q1015 NOSIG

Zeit: 11:50 (08:50 UTC)

Prognose

Neuester Wetterbericht von vor 3 Stunden und 20 Minuten, um 05:30 UTC
Gültige Prognose vom 16 um 06 UTC bis 17 um 06 UTC
Wind 8 kt aus Südost
Sichtweite 10 km oder mehr
Leicht bewölkt in der Höhe von 2500 ft
Übergehend zu
vom 16 um 10 UTC bis 16 um 14 UTC
Wind 12 kt aus Süd/Südwest
Übergehend zu
vom 16 um 15 UTC bis 16 um 18 UTC
Wind 7 kt aus Nordwest

TAF: LCLK 160530Z 1606/1706 14008KT 9999 FEW025 BECMG 1610/1614 21012KT BECMG 1615/1618 31007KT

Wetterbeobachtungen und Prognosen von mehr als 4000 Flughäfen (METAR und TAF Bericht).

Die verfügbaren Stationen werden durch gelbe und rote Markierungen auf der Karte dargestellt.

Führen Sie die Maus auf sie, um den Namen der Station zu sehen.

Darauf klicken, um die Beobachtung von Wetterbeobachtungen und Prognosen zu sehen.

Um die Karte zu ändern : klicken Sie auf den grünen Tasten mit einem schwarzen Kreuz Zum Vergrößern, auf den grünen Button mit einem Gedankenstrich zu verkleinern, oder auf die grünen Pfeile für benachbarte Karten.


METAR-TAF: